Tiempo atmosférico en la estación meteorológica de Cala, Huelva (618 m.)



Fecha
DESCASC
Temp. máxima en grados centígrados (hora)
DESCASC
Temp. mínima en grados centígrados (hora)
DESCASC
Temp. media en grados centígrados
DESCASC
Racha de viento máxima en m/sg (hora)
DESCASC
Velocidad máxima media en intervalos de 10 minutos(hora)
DESCASC
Precipitaciones diarias en mm
DESCASC
Precipitaciones de 00:00 a 06:00 en mm
DESCASC
Precipitaciones de 06:00 a 12:00 en mm
DESCASC
Precipitaciones de 12:00 a 18:00 en mm
DESCASC
Precipitaciones de 18:00 a 24:00 en mm
DESCASC
15-08-2019 36.9 (18:00) 19.8 (07:50) 28.4 11.39 (14:10) 4.17 (14:10) 0 0 0 0 0
14-08-2019 35.3 (18:30) 16.5 (00:00) 25.9 6.39 (15:20) 3.06 (20:20) 0 0 0 0 0
13-08-2019 33.6 (17:10) 18.8 (00:00) 26.2 6.67 (01:30) 3.33 (19:20) 0 0 0 0 0
12-08-2019 29.1 (17:40) 13.8 (00:00) 21.5 10.83 (15:20) 4.44 (13:00) 0 0 0 0 0
11-08-2019 27.9 (17:10) 14.8 (00:00) 21.3 10.28 (05:40) 6.11 (05:40) 0 0 0 0 0
10-08-2019 32.8 (18:00) 16.8 (00:00) 24.8 8.61 (23:10) 4.72 (23:30) 0 0 0 0 0
09-08-2019 33.2 (15:50) 18.6 (00:00) 25.9 9.17 (22:40) 4.72 (23:00) 0 0 0 0 0
08-08-2019 34.5 (17:20) 17.9 (00:00) 26.2 8.33 (23:50) 3.89 (23:50) 0 0 0 0 0
07-08-2019 30.6 (17:00) 19.7 (00:00) 25.2 7.5 (01:40) 4.44 (01:40) 0 0 0 0 0
06-08-2019 35.4 (17:10) 17.6 (00:00) 26.5 7.5 (16:40) 3.61 (19:50) 0 0 0 0 0
05-08-2019 35.6 (17:00) 20.3 (00:00) 27.9 8.33 (19:40) 4.17 (19:50) 0 0 0 0 0
04-08-2019 35.2 (18:20) 17.1 (00:00) 26.2 7.22 (00:40) 3.89 (00:30) 0 0 0 0 0
03-08-2019 34.7 (16:30) 17.6 (00:00) 26.2 7.22 (16:40) 2.78 (01:50) 0 0 0 0 0
02-08-2019 35.4 (17:10) 16.7 (00:00) 26.1 7.22 (15:20) 3.61 (00:30) 0 0 0 0 0
01-08-2019 33.8 (17:20) 17 (00:00) 25.4 8.33 (19:50) 3.89 (19:50) 0 0 0 0 0
31-07-2019 35.1 (16:50) 17.8 (00:00) 26.4 6.39 (23:20) 3.06 (23:20) 0 0 0 0 0
30-07-2019 31.5 (18:00) 15.5 (00:00) 23.5 7.22 (03:40) 3.89 (04:20) 0 0 0 0 0
29-07-2019 32.1 (17:00) 17.3 (00:00) 24.7 9.44 (21:00) 5.28 (21:00) 0 0 0 0 0
28-07-2019 31.2 (18:00) 15.6 (00:00) 23.4 5.56 (00:50) 2.78 (00:30) 0 0 0 0 0
27-07-2019 25 (16:30) 14 (00:00) 19.5 10.28 (01:00) 5.56 (01:00) 0 0 0 0 0
26-07-2019 28.7 (18:00) 16.8 (00:00) 22.8 9.17 (16:10) 5 (00:10) 0 0 0 0 0
25-07-2019 35.5 (15:40) 18.2 (00:00) 26.9 10 (23:59) 4.72 (23:59) 0 0 0 0 0
24-07-2019 36.3 (16:40) 20.6 (00:00) 28.4 6.67 (21:30) 3.33 (22:40) 0 0 0 0 0
23-07-2019 35.5 (14:50) 21.5 (00:00) 28.5 7.78 (21:50) 3.61 (21:50) 0 0 0 0 0
22-07-2019 36.5 (16:10) 19.7 (00:00) 28.1 6.11 (23:30) 3.33 (23:30) 0 0 0 0 0
21-07-2019 37.9 (16:40) 20.2 (00:00) 29.1 11.67 (17:40) 3.89 (02:00) 0 0 0 0 0
20-07-2019 37.5 (16:20) 19.8 (00:00) 28.6 8.61 (18:30) 3.89 (18:10) 0 0 0 0 0
19-07-2019 36.9 (17:20) 20.2 (00:00) 28.6 6.94 (15:20) 3.61 (23:30) 0 0 0 0 0

Gráficas

Temp. máximas Temp. mínimas Temp. medias Precipitaciones Rachas de viento máximas Velocidades máximas media en intervalos de 10 minutos

Datos horarios

Fecha y hora oficial Temperatura (ºC) Velocidad del viento (km/h) Dirección del viento Racha (km/h) Dirección de racha Precipitación (mm) Presión (hPa) Tendencia (hPa) Humedad (%)
2019-08-17 23:00:00 28 10 Noroeste 19 Oeste 0 -- -- 23
2019-08-17 22:00:00 29.5 11 Oeste 23 Noroeste 0 -- -- 23
2019-08-17 21:00:00 31.8 8 Oeste 19 Sudoeste 0 -- -- 25
2019-08-17 20:00:00 33.7 7 Oeste 21 Sudoeste 0 -- -- 24
2019-08-17 19:00:00 35.8 13 Oeste 25 Noroeste 0 -- -- 22
2019-08-17 18:00:00 36.3 9 Oeste 25 Oeste 0 -- -- 22
2019-08-17 17:00:00 36.3 9 Oeste 30 Sudoeste 0 -- -- 23
2019-08-17 16:00:00 36.6 6 Sudoeste 24 Oeste 0 -- -- 24
2019-08-17 15:00:00 36.5 5 Sur 23 Oeste 0 -- -- 27
2019-08-17 14:00:00 35.5 4 Sudeste 17 Sur 0 -- -- 29
2019-08-17 13:00:00 35.2 5 Sur 18 Sudoeste 0 -- -- 29
2019-08-17 12:00:00 33.3 3 Sur 14 Sudoeste 0 -- -- 33
2019-08-17 11:00:00 28.4 3 Sudoeste 10 Sudoeste 0 -- -- 44
2019-08-17 10:00:00 22.4 2 Sudeste 4 Sudeste 0 -- -- 52
2019-08-17 09:00:00 20.7 2 Sudeste 4 Sudeste 0 -- -- 56
2019-08-17 08:00:00 19.6 0 Calma 2 Noroeste 0 -- -- 46
2019-08-17 07:00:00 19.9 0 Calma 2 Sudoeste 0 -- -- 44
2019-08-17 06:00:00 20.4 0 Calma 2 Sudoeste 0 -- -- 40
2019-08-17 05:00:00 21.5 0 Calma 5 Oeste 0 -- -- 43
2019-08-17 04:00:00 22.4 3 Norte 9 Oeste 0 -- -- 40
2019-08-17 03:00:00 23.2 4 Noroeste 8 Noroeste 0 -- -- 43
2019-08-17 02:00:00 24.3 3 Noroeste 10 Oeste 0 -- -- 41
2019-08-17 01:00:00 26.1 5 Noroeste 19 Oeste 0 -- -- 38
2019-08-17 00:00:00 26.8 8 Oeste 13 Sudoeste 0 -- -- 38
2019-08-16 23:00:00 28.3 5 Oeste 17 Sudoeste 0 -- -- 37
2019-08-16 22:00:00 29.9 12 Oeste 23 Sudoeste 0 -- -- 34
2019-08-16 21:00:00 32 9 Oeste 22 Noroeste 0 -- -- 28
2019-08-16 20:00:00 33.9 10 Noroeste 24 Sudoeste 0 -- -- 26
2019-08-16 19:00:00 35.5 10 Sudoeste 26 Sudoeste 0 -- -- 25
2019-08-16 18:00:00 36.4 3 Sur 28 Oeste 0 -- -- 27
2019-08-16 17:00:00 36.2 4 Sur 25 Sudoeste 0 -- -- 27
2019-08-16 16:00:00 36.4 7 Oeste 25 Oeste 0 -- -- 24
2019-08-16 15:00:00 36.5 4 Sur 18 Sudoeste 0 -- -- 29
2019-08-16 14:00:00 36.1 3 Sur 12 Sudoeste 0 -- -- 28
2019-08-16 13:00:00 35.1 5 Sudoeste 15 Sudoeste 0 -- -- 29
2019-08-16 12:00:00 32.9 2 Sur 12 Sudoeste 0 -- -- 35
2019-08-16 11:00:00 28.3 2 Sudeste 6 Este 0 -- -- 51
2019-08-16 10:00:00 22.8 2 Este 4 Este 0 -- -- 62
2019-08-16 09:00:00 20.9 0 Calma 4 Noroeste 0 -- -- 55
2019-08-16 08:00:00 20.8 3 Noroeste 6 Noroeste 0 -- -- 49
2019-08-16 07:00:00 21.7 0 Calma 4 Sudoeste 0 -- -- 47
2019-08-16 06:00:00 22.1 0 Calma 8 Oeste 0 -- -- 45
2019-08-16 05:00:00 22.7 4 Oeste 9 Oeste 0 -- -- 43
2019-08-16 04:00:00 23.6 2 Noroeste 8 Noroeste 0 -- -- 42
2019-08-16 03:00:00 25.1 5 Oeste 13 Noroeste 0 -- -- 39
2019-08-16 02:00:00 25.7 5 Noroeste 15 Oeste 0 -- -- 38
2019-08-16 01:00:00 26 8 Noroeste 23 Oeste 0 -- -- 37
2019-08-16 00:00:00 25.5 4 Oeste 6 Oeste 0 -- -- 38
2019-08-15 23:00:00 27.4 0 Calma 9 Sudoeste 0 -- -- 36
2019-08-15 22:00:00 29.7 5 Oeste 14 Noroeste 0 -- -- 31
2019-08-15 21:00:00 31.9 5 Sudoeste 20 Sudoeste 0 -- -- 31
2019-08-15 20:00:00 34.4 11 Noroeste 20 Noroeste 0 -- -- 23
2019-08-15 19:00:00 36.4 9 Noroeste 23 Oeste 0 -- -- 21
2019-08-15 18:00:00 36.9 8 Noroeste 19 Norte 0 -- -- 21
2019-08-15 17:00:00 36.4 3 Sur 17 Noroeste 0 -- -- 23
2019-08-15 16:00:00 36.1 7 Norte 20 Oeste 0 -- -- 22
2019-08-15 15:00:00 35.9 4 Sur 41 Noroeste 0 -- -- 27
2019-08-15 14:00:00 35.4 6 Este 17 Este 0 -- -- 25
2019-08-15 13:00:00 35 6 Oeste 18 Sudoeste 0 -- -- 27
2019-08-15 12:00:00 33.3 4 Este 12 Este 0 -- -- 29
2019-08-15 11:00:00 29.1 3 Sudeste 9 Este 0 -- -- 43
2019-08-15 10:00:00 23.7 2 Sudeste 4 Sudeste 0 -- -- 55
2019-08-15 09:00:00 21.2 0 Calma 3 Noroeste 0 -- -- 55
2019-08-15 08:00:00 20 0 Calma 4 Noroeste 0 -- -- 51
2019-08-15 07:00:00 20.3 3 Noroeste 5 Noroeste 0 -- -- 50
2019-08-15 06:00:00 21.3 0 Calma 8 Noroeste 0 -- -- 48
2019-08-15 05:00:00 22.4 4 Noroeste 9 Noroeste 0 -- -- 45
2019-08-15 04:00:00 22.8 4 Noroeste 9 Noroeste 0 -- -- 42
2019-08-15 03:00:00 23.7 4 Noroeste 10 Noroeste 0 -- -- 39
2019-08-15 02:00:00 25.5 6 Noroeste 22 Norte 0 -- -- 34
2019-08-15 01:00:00 25.3 9 Norte 19 Noroeste 0 -- -- 28
2019-08-15 00:00:00 25.8 2 Norte 11 Norte 0 -- -- 27
2019-08-14 23:00:00 25.8 4 Noroeste 9 Sudeste 0 -- -- 26
2019-08-14 22:00:00 27.7 0 Calma 10 Noroeste 0 -- -- 26
2019-08-14 21:00:00 31 8 Norte 19 Noroeste 0 -- -- 20
2019-08-14 20:00:00 32.8 6 Norte 17 Norte 0 -- -- 18
2019-08-14 19:00:00 34.7 6 Norte 20 Norte 0 -- -- 18
2019-08-14 18:00:00 35 6 Oeste 21 Noroeste 0 -- -- 17
2019-08-14 17:00:00 34.6 4 Sur 21 Nordeste 0 -- -- 23
2019-08-14 16:00:00 34.3 4 Este 23 Este 0 -- -- 21
2019-08-14 15:00:00 34.6 4 Sudoeste 17 Sudoeste 0 -- -- 23
2019-08-14 14:00:00 34 4 Sudoeste 15 Este 0 -- -- 28
2019-08-14 13:00:00 33.1 4 Este 13 Oeste 0 -- -- 25
2019-08-14 12:00:00 31 5 Nordeste 16 Este 0 -- -- 23
2019-08-14 11:00:00 26.3 0 Calma 5 Este 0 -- -- 30
2019-08-14 10:00:00 20.5 0 Calma 4 Sudeste 0 -- -- 41
2019-08-14 09:00:00 17.6 3 Noroeste 4 Noroeste 0 -- -- 43
2019-08-14 08:00:00 16.8 0 Calma 3 Nordeste 0 -- -- 38
2019-08-14 07:00:00 17.8 0 Calma 5 Sudeste 0 -- -- 33
2019-08-14 06:00:00 18.5 0 Calma 4 Noroeste 0 -- -- 32
2019-08-14 05:00:00 19.1 2 Noroeste 4 Nordeste 0 -- -- 29
2019-08-14 04:00:00 20 3 Noroeste 8 Noroeste 0 -- -- 28
2019-08-14 03:00:00 21 4 Noroeste 10 Norte 0 -- -- 27
2019-08-14 02:00:00 20.8 5 Noroeste 8 Noroeste 0 -- -- 27
2019-08-14 01:00:00 21.4 4 Noroeste 6 Noroeste 0 -- -- 25
2019-08-14 00:00:00 23.2 3 Noroeste 11 Nordeste 0 -- -- 23
2019-08-13 23:00:00 24 4 Este 11 Sudeste 0 -- -- 23
2019-08-13 22:00:00 25.5 3 Norte 10 Norte 0 -- -- 21
2019-08-13 21:00:00 28.8 0 Calma 14 Norte 0 -- -- 21
2019-08-13 20:00:00 30.9 3 Nordeste 19 Norte 0 -- -- 20
2019-08-13 19:00:00 32.9 9 Noroeste 17 Nordeste 0 -- -- 16
2019-08-13 18:00:00 33.5 4 Sudeste 19 Norte 0 -- -- 15
2019-08-13 17:00:00 33.4 10 Oeste 22 Noroeste 0 -- -- 17
2019-08-13 16:00:00 32.9 5 Oeste 17 Nordeste 0 -- -- 18
2019-08-13 15:00:00 32.8 7 Noroeste 21 Este 0 -- -- 20
2019-08-13 14:00:00 32.6 5 Este 14 Este 0 -- -- 20
2019-08-13 13:00:00 31.9 2 Sudeste 14 Este 0 -- -- 21
2019-08-13 12:00:00 29.9 5 Sudeste 14 Este 0 -- -- 25
2019-08-13 11:00:00 26 4 Este 13 Este 0 -- -- 27
2019-08-13 10:00:00 21.3 4 Este 9 Sudeste 0 -- -- 45
2019-08-13 09:00:00 19.6 3 Nordeste 8 Norte 0 -- -- 33
2019-08-13 08:00:00 18.8 5 Noroeste 9 Noroeste 0 -- -- 32
2019-08-13 07:00:00 20.2 5 Norte 15 Noroeste 0 -- -- 29
2019-08-13 06:00:00 20.4 8 Noroeste 15 Norte 0 -- -- 29
2019-08-13 05:00:00 20.6 8 Norte 19 Norte 0 -- -- 29
2019-08-13 04:00:00 20.9 3 Norte 18 Norte 0 -- -- 29
2019-08-13 03:00:00 21.7 8 Norte 17 Nordeste 0 -- -- 24
2019-08-13 02:00:00 22.3 9 Norte 24 Noroeste 0 -- -- 22
2019-08-13 01:00:00 22.8 8 Noroeste 23 Noroeste 0 -- -- 24
2019-08-13 00:00:00 23 8 Noroeste 21 Noroeste 0 -- -- 23
2019-08-12 23:00:00 23.1 5 Norte 15 Norte 0 -- -- 26
2019-08-12 22:00:00 23.4 5 Noroeste 19 Norte 0 -- -- 27
2019-08-12 21:00:00 25.2 8 Norte 24 Noroeste 0 -- -- 25
2019-08-12 20:00:00 26.4 13 Norte 26 Noroeste 0 -- -- 22
2019-08-12 19:00:00 27.5 9 Norte 30 Noroeste 0 -- -- 21
2019-08-12 18:00:00 28.8 12 Nordeste 27 Noroeste 0 -- -- 20
2019-08-12 17:00:00 28.8 10 Norte 30 Noroeste 0 -- -- 22
2019-08-12 16:00:00 28.1 14 Norte 39 Noroeste 0 -- -- 21
2019-08-12 15:00:00 27.5 15 Norte 32 Norte 0 -- -- 25
2019-08-12 14:00:00 26.7 14 Norte 36 Noroeste 0 -- -- 23
2019-08-12 13:00:00 25.4 16 Norte 32 Norte 0 -- -- 31
2019-08-12 12:00:00 24 13 Norte 28 Nordeste 0 -- -- 33
2019-08-12 11:00:00 21.2 15 Nordeste 30 Nordeste 0 -- -- 37
2019-08-12 10:00:00 17.2 9 Norte 31 Norte 0 -- -- 58
2019-08-12 09:00:00 15.8 13 Norte 29 Norte 0 -- -- 53
2019-08-12 08:00:00 14 5 Norte 17 Norte 0 -- -- 63
2019-08-12 07:00:00 14.9 4 Nordeste 22 Nordeste 0 -- -- 61
2019-08-12 06:00:00 15.6 6 Nordeste 23 Norte 0 -- -- 58
2019-08-12 05:00:00 15.9 8 Noroeste 23 Norte 0 -- -- 58
2019-08-12 04:00:00 16.3 10 Noroeste 22 Noroeste 0 -- -- 56
2019-08-12 03:00:00 17.1 9 Noroeste 24 Norte 0 -- -- 52
2019-08-12 02:00:00 -- 10 Noroeste 32 Noroeste 0 -- -- --
2019-08-12 01:00:00 19 10 Noroeste 27 Norte 0 -- -- 44
2019-08-12 00:00:00 19.7 12 Noroeste 29 Noroeste 0 -- -- 41
2019-08-11 23:00:00 20.2 7 Noroeste 16 Noroeste 0 -- -- 39
2019-08-11 22:00:00 21 5 Noroeste 18 Noroeste 0 -- -- 35
2019-08-11 21:00:00 22.9 13 Noroeste 24 Noroeste 0 -- -- 31
2019-08-11 20:00:00 24.2 13 Norte 28 Noroeste 0 -- -- 30
2019-08-11 19:00:00 27.2 15 Noroeste 27 Noroeste 0 -- -- 25
2019-08-11 18:00:00 27.8 12 Noroeste 28 Noroeste 0 -- -- 26
2019-08-11 17:00:00 27.8 13 Noroeste 32 Oeste 0 -- -- 24
2019-08-11 16:00:00 27.1 17 Noroeste 31 Noroeste 0 -- -- 21
2019-08-11 15:00:00 27.6 15 Noroeste 31 Noroeste 0 -- -- 23
2019-08-11 14:00:00 26.1 15 Noroeste 30 Noroeste 0 -- -- 27
2019-08-11 13:00:00 24.8 13 Oeste 29 Noroeste 0 -- -- 29
2019-08-11 12:00:00 23.4 12 Noroeste 25 Oeste 0 -- -- 35
2019-08-11 11:00:00 20.7 9 Noroeste 22 Noroeste 0 -- -- 45
2019-08-11 10:00:00 15.9 12 Noroeste 24 Oeste 0 -- -- 65
2019-08-11 09:00:00 15.5 12 Noroeste 30 Noroeste 0 -- -- 61
2019-08-11 08:00:00 14.8 12 Noroeste 30 Oeste 0 -- -- 64
2019-08-11 07:00:00 15.5 16 Noroeste 30 Noroeste 0 -- -- 60
2019-08-11 06:00:00 16 17 Noroeste 37 Oeste 0 -- -- 60
2019-08-11 05:00:00 17.2 15 Noroeste 30 Noroeste 0 -- -- 54
2019-08-11 04:00:00 17.5 9 Noroeste 27 Noroeste 0 -- -- 59
2019-08-11 03:00:00 18.3 10 Noroeste 32 Oeste 0 -- -- 62
2019-08-11 02:00:00 19.6 19 Oeste 32 Oeste 0 -- -- 58
2019-08-11 01:00:00 21.1 14 Noroeste 33 Noroeste 0 -- -- 49
2019-08-11 00:00:00 22.1 13 Noroeste 31 Noroeste 0 -- -- 44
2019-08-10 23:00:00 23.6 14 Noroeste 28 Noroeste 0 -- -- 39
2019-08-10 22:00:00 25.4 12 Noroeste 24 Oeste 0 -- -- 28
2019-08-10 21:00:00 27.9 9 Noroeste 27 Noroeste 0 -- -- 25
2019-08-10 20:00:00 30.3 12 Noroeste 27 Oeste 0 -- -- 24
2019-08-10 19:00:00 32.6 6 Noroeste 24 Oeste 0 -- -- 28
2019-08-10 18:00:00 32.8 5 Oeste 16 Norte 0 -- -- 30
2019-08-10 17:00:00 32.4 4 Sudoeste 16 Oeste 0 -- -- 33
2019-08-10 16:00:00 31.5 6 Oeste 22 Oeste 0 -- -- 33
2019-08-10 15:00:00 31.5 3 Sudeste 21 Oeste 0 -- -- 35
2019-08-10 14:00:00 30.6 10 Oeste 20 Sudoeste 0 -- -- 35
2019-08-10 13:00:00 29.6 4 Sur 15 Oeste 0 -- -- 39
2019-08-10 12:00:00 27.4 4 Sudeste 17 Oeste 0 -- -- 45
2019-08-10 11:00:00 24.1 5 Nordeste 14 Noroeste 0 -- -- 55
2019-08-10 10:00:00 20 7 Nordeste 15 Nordeste 0 -- -- 66
2019-08-10 09:00:00 18 4 Nordeste 9 Nordeste 0 -- -- 68
2019-08-10 08:00:00 16.9 5 Noroeste 9 Norte 0 -- -- 78
2019-08-10 07:00:00 17.2 0 Calma 4 Noroeste 0 -- -- 76
2019-08-10 06:00:00 18.1 3 Noroeste 12 Noroeste 0 -- -- 73
2019-08-10 05:00:00 18.6 5 Noroeste 9 Noroeste 0 -- -- 72
2019-08-10 04:00:00 19.2 3 Noroeste 10 Oeste 0 -- -- 73
2019-08-10 03:00:00 19.9 4 Noroeste 12 Oeste 0 -- -- 75
2019-08-10 02:00:00 20.7 6 Oeste 15 Oeste 0 -- -- 75
2019-08-10 01:00:00 21.7 7 Oeste 13 Noroeste 0 -- -- 72
2019-08-10 00:00:00 22.6 6 Noroeste 30 Sudoeste 0 -- -- 68
2019-08-09 23:00:00 23.9 17 Noroeste 33 Oeste 0 -- -- 65
2019-08-09 22:00:00 25.3 11 Noroeste 25 Noroeste 0 -- -- 61
2019-08-09 21:00:00 27 13 Noroeste 24 Noroeste 0 -- -- 54
2019-08-09 20:00:00 28.8 12 Noroeste 25 Noroeste 0 -- -- 50
2019-08-09 19:00:00 30.8 14 Noroeste 29 Noroeste 0 -- -- 48
2019-08-09 18:00:00 31.1 11 Oeste 28 Noroeste 0 -- -- 43
2019-08-09 17:00:00 31.5 12 Noroeste 26 Oeste 0 -- -- 43
2019-08-09 16:00:00 32.8 13 Noroeste 28 Oeste 0 -- -- 41
2019-08-09 15:00:00 32.7 7 Sudoeste 23 Sudoeste 0 -- -- 39
2019-08-09 14:00:00 31.8 10 Sudoeste 26 Oeste 0 -- -- 40
2019-08-09 13:00:00 30.4 8 Oeste 17 Noroeste 0 -- -- 44
2019-08-09 12:00:00 28.3 6 Noroeste 16 Noroeste 0 -- -- 51
2019-08-09 11:00:00 25.4 6 Noroeste 13 Norte 0 -- -- 65
2019-08-09 10:00:00 21 0 Calma 10 Sur 0 -- -- 81
2019-08-09 09:00:00 19.2 4 Noroeste 10 Noroeste 0 -- -- 88
2019-08-09 08:00:00 18.8 0 Calma 10 Oeste 0 -- -- 82
2019-08-09 07:00:00 19.7 6 Oeste 13 Oeste 0 -- -- 79
2019-08-09 06:00:00 20.1 2 Oeste 14 Oeste 0 -- -- 71
2019-08-09 05:00:00 20.7 5 Oeste 17 Oeste 0 -- -- 70
2019-08-09 04:00:00 21.2 9 Oeste 23 Oeste 0 -- -- 66
2019-08-09 03:00:00 21.7 13 Oeste 27 Noroeste 0 -- -- 70
2019-08-09 02:00:00 22.3 10 Noroeste 27 Oeste 0 -- -- 69
2019-08-09 01:00:00 23.3 12 Noroeste 28 Oeste 0 -- -- 64
2019-08-09 00:00:00 24.8 13 Noroeste 30 Noroeste 0 -- -- 61
2019-08-08 23:00:00 26.5 11 Noroeste 20 Noroeste 0 -- -- 47
2019-08-08 22:00:00 28 11 Noroeste 21 Oeste 0 -- -- 42
2019-08-08 21:00:00 30 10 Noroeste 21 Noroeste 0 -- -- 36
2019-08-08 20:00:00 31.6 4 Sudoeste 19 Noroeste 0 -- -- 23
2019-08-08 19:00:00 33.7 7 Sudoeste 20 Oeste 0 -- -- 21
2019-08-08 18:00:00 34.5 6 Sudoeste 25 Sudoeste 0 -- -- 21
2019-08-08 17:00:00 34.4 6 Sudoeste 27 Sudoeste 0 -- -- 24
2019-08-08 16:00:00 34.2 9 Sudoeste 27 Oeste 0 -- -- 25
2019-08-08 15:00:00 34.1 4 Sur 22 Oeste 0 -- -- 30
2019-08-08 14:00:00 32.9 4 Sur 18 Sudoeste 0 -- -- 32
2019-08-08 13:00:00 31.5 9 Oeste 18 Noroeste 0 -- -- 37
2019-08-08 12:00:00 29.9 4 Sur 15 Oeste 0 -- -- 40
2019-08-08 11:00:00 26.4 4 Este 10 Este 0 -- -- 47
2019-08-08 10:00:00 20.9 2 Sudeste 7 Sudeste 0 -- -- 70
2019-08-08 09:00:00 18.6 0 Calma 3 Este 0 -- -- 77
2019-08-08 08:00:00 18.1 2 Noroeste 9 Oeste 0 -- -- 69
2019-08-08 07:00:00 18.7 4 Oeste 11 Oeste 0 -- -- 67
2019-08-08 06:00:00 19.3 2 Noroeste 17 Noroeste 0 -- -- 69
2019-08-08 05:00:00 19.8 10 Oeste 18 Oeste 0 -- -- 68
2019-08-08 04:00:00 20.3 9 Oeste 16 Noroeste 0 -- -- 63
2019-08-08 03:00:00 20.2 3 Noroeste 10 Noroeste 0 -- -- 60
2019-08-08 02:00:00 20.8 4 Noroeste 9 Noroeste 0 -- -- 57
2019-08-08 01:00:00 21.2 4 Noroeste 12 Oeste 0 -- -- 54
2019-08-08 00:00:00 21.4 2 Noroeste 8 Oeste 0 -- -- 54
2019-08-07 23:00:00 22.1 3 Noroeste 6 Noroeste 0 -- -- 52
2019-08-07 22:00:00 23.7 0 Calma 9 Norte 0 -- -- 48
2019-08-07 21:00:00 25.9 6 Norte 16 Norte 0 -- -- 44
2019-08-07 20:00:00 26.7 9 Norte 19 Noroeste 0 -- -- 44
2019-08-07 19:00:00 27.4 10 Noroeste 18 Norte 0 -- -- 40
2019-08-07 18:00:00 28.7 5 Norte 21 Noroeste 0 -- -- 37
2019-08-07 17:00:00 30.6 5 Sudoeste 17 Noroeste 0 -- -- 35
2019-08-07 16:00:00 29.6 7 Noroeste 16 Noroeste 0 -- -- 37
2019-08-07 15:00:00 28.2 7 Noroeste 18 Oeste 0 -- -- 39
2019-08-07 14:00:00 28 8 Noroeste 17 Noroeste 0 -- -- 39
2019-08-07 13:00:00 28.9 7 Oeste 22 Oeste 0 -- -- 38
2019-08-07 12:00:00 27.9 8 Oeste 16 Oeste 0 -- -- 44
2019-08-07 11:00:00 25.9 8 Oeste 13 Sudoeste 0 -- -- 45
2019-08-07 10:00:00 21.8 0 Calma 10 Noroeste 0 -- -- 58
2019-08-07 09:00:00 20.4 3 Noroeste 15 Oeste 0 -- -- 62
2019-08-07 08:00:00 20 9 Oeste 18 Oeste 0 -- -- 59
2019-08-07 07:00:00 19.8 9 Oeste 17 Oeste 0 -- -- 67
2019-08-07 06:00:00 20.1 6 Oeste 21 Oeste 0 -- -- 68
2019-08-07 05:00:00 20.6 12 Oeste 25 Oeste 0 -- -- 69
2019-08-07 04:00:00 21.2 13 Oeste 24 Oeste 0 -- -- 65
2019-08-07 03:00:00 22.1 15 Oeste 27 Oeste 0 -- -- 61
2019-08-07 02:00:00 22.8 15 Oeste 27 Noroeste 0 -- -- 58
2019-08-07 01:00:00 23.8 14 Noroeste 26 Noroeste 0 -- -- 54
2019-08-07 00:00:00 24.9 11 Oeste 23 Oeste 0 -- -- 49
2019-08-06 23:00:00 26.2 9 Noroeste 20 Noroeste 0 -- -- 44
2019-08-06 22:00:00 27.7 8 Noroeste 19 Noroeste 0 -- -- 34
2019-08-06 21:00:00 29.9 10 Noroeste 23 Oeste 0 -- -- 29
2019-08-06 20:00:00 31.9 10 Noroeste 26 Sur 0 -- -- 27
2019-08-06 19:00:00 34.3 8 Oeste 24 Sudoeste 0 -- -- 22
2019-08-06 18:00:00 34.9 5 Sudoeste 24 Sudoeste 0 -- -- 23
2019-08-06 17:00:00 35.3 6 Sudoeste 27 Sudoeste 0 -- -- 21
2019-08-06 16:00:00 34.8 11 Oeste 26 Sudoeste 0 -- -- 19
2019-08-06 15:00:00 34.4 13 Oeste 24 Sudoeste 0 -- -- 21
2019-08-06 14:00:00 34.2 4 Sudeste 20 Sudoeste 0 -- -- 31
2019-08-06 13:00:00 33.5 3 Sur 17 Sudoeste 0 -- -- 31
2019-08-06 12:00:00 31.7 3 Sur 17 Oeste 0 -- -- 34
2019-08-06 11:00:00 27.9 3 Sur 15 Oeste 0 -- -- 39
2019-08-06 10:00:00 22.1 5 Noroeste 10 Noroeste 0 -- -- 52
2019-08-06 09:00:00 20.7 4 Noroeste 10 Noroeste 0 -- -- 52
2019-08-06 08:00:00 18.6 6 Oeste 9 Oeste 0 -- -- 56
2019-08-06 07:00:00 17.9 2 Oeste 5 Noroeste 0 -- -- 55
2019-08-06 06:00:00 18.6 0 Calma 4 Sudeste 0 -- -- 53
2019-08-06 05:00:00 19.6 0 Calma 7 Noroeste 0 -- -- 52
2019-08-06 04:00:00 20.8 4 Noroeste 14 Oeste 0 -- -- 50
2019-08-06 03:00:00 22 6 Noroeste 21 Oeste 0 -- -- 47
2019-08-06 02:00:00 23.3 12 Oeste 25 Oeste 0 -- -- 43
2019-08-06 01:00:00 24.4 9 Oeste 18 Oeste 0 -- -- 36
2019-08-06 00:00:00 25.2 8 Oeste 15 Oeste 0 -- -- 31
2019-08-05 23:00:00 26 4 Oeste 13 Oeste 0 -- -- 27
2019-08-05 22:00:00 28.1 6 Noroeste 22 Noroeste 0 -- -- 21
2019-08-05 21:00:00 30.5 11 Noroeste 24 Oeste 0 -- -- 20
2019-08-05 20:00:00 32.4 12 Oeste 30 Noroeste 0 -- -- 21
2019-08-05 19:00:00 34.9 8 Oeste 23 Oeste 0 -- -- 19
2019-08-05 18:00:00 35.5 6 Sudoeste 27 Oeste 0 -- -- 18
2019-08-05 17:00:00 35.6 5 Sur 25 Oeste 0 -- -- 22
2019-08-05 16:00:00 35.4 9 Oeste 24 Oeste 0 -- -- 21
2019-08-05 15:00:00 35.1 6 Oeste 22 Sudoeste 0 -- -- 24
2019-08-05 14:00:00 34.4 5 Sudeste 26 Sudoeste 0 -- -- 26
2019-08-05 13:00:00 33.8 3 Sur 18 Oeste 0 -- -- 29
2019-08-05 12:00:00 31.7 5 Sudoeste 21 Sudoeste 0 -- -- 34
2019-08-05 11:00:00 28.4 8 Oeste 19 Sudoeste 0 -- -- 37
2019-08-05 10:00:00 23 4 Noroeste 8 Noroeste 0 -- -- 47
2019-08-05 09:00:00 20.9 3 Noroeste 6 Oeste 0 -- -- 56
2019-08-05 08:00:00 20.5 4 Oeste 12 Oeste 0 -- -- 54
2019-08-05 07:00:00 20.5 4 Noroeste 9 Oeste 0 -- -- 55
2019-08-05 06:00:00 20.7 5 Oeste 10 Noroeste 0 -- -- 57
2019-08-05 05:00:00 20.7 4 Oeste 10 Oeste 0 -- -- 57
2019-08-05 04:00:00 21 5 Noroeste 8 Noroeste 0 -- -- 56
2019-08-05 03:00:00 21.7 3 Noroeste 14 Oeste 0 -- -- 53
2019-08-05 02:00:00 22.9 7 Noroeste 19 Noroeste 0 -- -- 51
2019-08-05 01:00:00 24.1 9 Oeste 24 Oeste 0 -- -- 47
2019-08-05 00:00:00 25.6 12 Noroeste 25 Noroeste 0 -- -- 42
2019-08-04 23:00:00 26.9 10 Noroeste 18 Noroeste 0 -- -- 36
2019-08-04 22:00:00 28.6 7 Noroeste 17 Noroeste 0 -- -- 31
2019-08-04 21:00:00 30.9 8 Noroeste 23 Noroeste 0 -- -- 27
2019-08-04 20:00:00 32.4 12 Noroeste 22 Noroeste 0 -- -- 24
2019-08-04 19:00:00 34.6 10 Noroeste 26 Oeste 0 -- -- 23
2019-08-04 18:00:00 35.1 4 Sudoeste 21 Oeste 0 -- -- 23
2019-08-04 17:00:00 35 12 Oeste 23 Sudoeste 0 -- -- 22
2019-08-04 16:00:00 35 5 Oeste 19 Noroeste 0 -- -- 27
2019-08-04 15:00:00 34.3 6 Oeste 22 Sudoeste 0 -- -- 25
2019-08-04 14:00:00 33.3 7 Norte 22 Oeste 0 -- -- 27
2019-08-04 13:00:00 32.2 3 Sudeste 17 Noroeste 0 -- -- 28
2019-08-04 12:00:00 30.5 7 Oeste 15 Oeste 0 -- -- 35
2019-08-04 11:00:00 27 6 Oeste 10 Oeste 0 -- -- 41
2019-08-04 10:00:00 21.9 2 Este 4 Sudeste 0 -- -- 62
2019-08-04 09:00:00 19 3 Noroeste 4 Noroeste 0 -- -- 62
2019-08-04 08:00:00 17.1 0 Calma 3 Oeste 0 -- -- 61
2019-08-04 07:00:00 18 0 Calma 3 Oeste 0 -- -- 60
2019-08-04 06:00:00 19.3 0 Calma 6 Oeste 0 -- -- 60
2019-08-04 05:00:00 19.9 0 Calma 10 Oeste 0 -- -- 61
2019-08-04 04:00:00 21.3 5 Noroeste 19 Oeste 0 -- -- 59
2019-08-04 03:00:00 22.2 11 Oeste 21 Oeste 0 -- -- 56
2019-08-04 02:00:00 23.1 9 Oeste 21 Oeste 0 -- -- 52
2019-08-04 01:00:00 24.4 12 Oeste 26 Oeste 0 -- -- 48
2019-08-04 00:00:00 24.6 8 Oeste 14 Noroeste 0 -- -- 34
2019-08-03 23:00:00 25.8 6 Oeste 11 Oeste 0 -- -- 31
2019-08-03 22:00:00 27.5 5 Noroeste 19 Noroeste 0 -- -- 29
2019-08-03 21:00:00 29.8 8 Oeste 16 Sudoeste 0 -- -- 25
2019-08-03 20:00:00 31.3 4 Sudoeste 17 Sudoeste 0 -- -- 25
2019-08-03 19:00:00 33.7 3 Sur 21 Noroeste 0 -- -- 23
2019-08-03 18:00:00 34.4 8 Sudoeste 21 Oeste 0 -- -- 23
2019-08-03 17:00:00 34.7 7 Sudoeste 26 Sudoeste 0 -- -- 25
2019-08-03 16:00:00 34.5 7 Sudoeste 20 Oeste 0 -- -- 25
2019-08-03 15:00:00 34.1 4 Sur 24 Oeste 0 -- -- 29
2019-08-03 14:00:00 34.1 5 Sur 21 Sudoeste 0 -- -- 29
2019-08-03 13:00:00 33 4 Sudeste 11 Sudeste 0 -- -- 32
2019-08-03 12:00:00 31.7 4 Sur 14 Sudoeste 0 -- -- 34
2019-08-03 11:00:00 28 2 Sur 9 Este 0 -- -- 40
2019-08-03 10:00:00 22 3 Sudeste 5 Este 0 -- -- 63
2019-08-03 09:00:00 19.3 0 Calma 3 Sudeste 0 -- -- 67
2019-08-03 08:00:00 17.6 0 Calma 4 Oeste 0 -- -- 63
2019-08-03 07:00:00 18.3 0 Calma 4 Noroeste 0 -- -- 60
2019-08-03 06:00:00 19.8 0 Calma 12 Oeste 0 -- -- 59
2019-08-03 05:00:00 20.3 7 Noroeste 11 Oeste 0 -- -- 61
2019-08-03 04:00:00 21.3 5 Noroeste 12 Oeste 0 -- -- 56
2019-08-03 03:00:00 22.2 6 Noroeste 18 Oeste 0 -- -- 53
2019-08-03 02:00:00 23.3 9 Oeste 19 Noroeste 0 -- -- 45
2019-08-03 01:00:00 23.9 6 Oeste 14 Oeste 0 -- -- 32
2019-08-03 00:00:00 24.5 7 Oeste 13 Oeste 0 -- -- 31
2019-08-02 23:00:00 25.7 6 Noroeste 11 Noroeste 0 -- -- 28
2019-08-02 22:00:00 28 6 Noroeste 19 Oeste 0 -- -- 26
2019-08-02 21:00:00 30.5 8 Noroeste 22 Oeste 0 -- -- 24
2019-08-02 20:00:00 32.2 7 Oeste 23 Oeste 0 -- -- 24
2019-08-02 19:00:00 34.4 3 Sur 17 Oeste 0 -- -- 19
2019-08-02 18:00:00 35.2 4 Sudoeste 17 Sudoeste 0 -- -- 16
2019-08-02 17:00:00 35.3 7 Oeste 22 Sudoeste 0 -- -- 17
2019-08-02 16:00:00 35 8 Noroeste 26 Oeste 0 -- -- 16
2019-08-02 15:00:00 35.2 3 Sur 18 Oeste 0 -- -- 26
2019-08-02 14:00:00 33.9 9 Oeste 19 Sudoeste 0 -- -- 21
2019-08-02 13:00:00 33 2 Sur 17 Noroeste 0 -- -- 22
2019-08-02 12:00:00 31.4 6 Oeste 17 Sudoeste 0 -- -- 25
2019-08-02 11:00:00 27.8 3 Este 8 Este 0 -- -- 30
2019-08-02 10:00:00 21.5 3 Sudeste 7 Sudeste 0 -- -- 42
2019-08-02 09:00:00 17.8 0 Calma 2 Sudeste 0 -- -- 55
2019-08-02 08:00:00 16.8 0 Calma 0 Calma 0 -- -- 41
2019-08-02 07:00:00 17.9 0 Calma 6 Oeste 0 -- -- 42
2019-08-02 06:00:00 18.9 0 Calma 15 Noroeste 0 -- -- 45
2019-08-02 05:00:00 20.2 8 Noroeste 17 Noroeste 0 -- -- 37
2019-08-02 04:00:00 20.1 5 Noroeste 12 Noroeste 0 -- -- 43
2019-08-02 03:00:00 21.4 5 Noroeste 21 Noroeste 0 -- -- 42
2019-08-02 02:00:00 22.6 10 Noroeste 21 Noroeste 0 -- -- 40
2019-08-02 01:00:00 23.7 10 Noroeste 24 Noroeste 0 -- -- 37
2019-08-02 00:00:00 24.9 12 Noroeste 23 Noroeste 0 -- -- 34
2019-08-01 23:00:00 26 10 Oeste 17 Oeste 0 -- -- 30
2019-08-01 22:00:00 27.4 6 Oeste 19 Oeste 0 -- -- 29
2019-08-01 21:00:00 29.8 10 Noroeste 23 Oeste 0 -- -- 25
2019-08-01 20:00:00 31.1 12 Noroeste 30 Oeste 0 -- -- 23
2019-08-01 19:00:00 33.2 8 Oeste 25 Noroeste 0 -- -- 22
2019-08-01 18:00:00 33.8 11 Noroeste 27 Norte 0 -- -- 22
2019-08-01 17:00:00 33.7 8 Noroeste 20 Noroeste 0 -- -- 23
2019-08-01 16:00:00 33.4 7 Sur 25 Sudoeste 0 -- -- 27
2019-08-01 15:00:00 33.1 6 Oeste 22 Sudoeste 0 -- -- 30
2019-08-01 14:00:00 32.4 8 Oeste 24 Sudoeste 0 -- -- 34
2019-08-01 13:00:00 31.6 5 Sudoeste 19 Sudoeste 0 -- -- 29
2019-08-01 12:00:00 29.4 3 Sur 18 Sudoeste 0 -- -- 35
2019-08-01 11:00:00 25.4 5 Sudoeste 18 Sudoeste 0 -- -- 47
2019-08-01 10:00:00 21.1 4 Sudeste 8 Sudeste 0 -- -- 63
2019-08-01 09:00:00 18.9 2 Este 3 Este 0 -- -- 61
2019-08-01 08:00:00 17.1 0 Calma 0 Calma 0 -- -- 51
2019-08-01 07:00:00 17.2 0 Calma 3 Oeste 0 -- -- 49
2019-08-01 06:00:00 17.9 0 Calma 5 Noroeste 0 -- -- 50
2019-08-01 05:00:00 19.3 3 Noroeste 5 Noroeste 0 -- -- 48
2019-08-01 04:00:00 21 0 Calma 14 Oeste 0 -- -- 44
2019-08-01 03:00:00 22.2 7 Oeste 16 Oeste 0 -- -- 38
2019-08-01 02:00:00 22.2 2 Noroeste 13 Noroeste 0 -- -- 39
2019-08-01 01:00:00 23.1 5 Oeste 14 Oeste 0 -- -- 38
2019-08-01 00:00:00 24.6 6 Noroeste 23 Oeste 0 -- -- 35
2019-07-31 23:00:00 26.3 10 Sudoeste 22 Oeste 0 -- -- 47
2019-07-31 22:00:00 28.1 8 Sudoeste 15 Oeste 0 -- -- 26
2019-07-31 21:00:00 30.4 8 Noroeste 18 Oeste 0 -- -- 22
2019-07-31 20:00:00 32.6 9 Noroeste 17 Noroeste 0 -- -- 21
2019-07-31 19:00:00 34.5 3 Sur 19 Oeste 0 -- -- 26
2019-07-31 18:00:00 34.9 9 Oeste 19 Oeste 0 -- -- 23
2019-07-31 17:00:00 35.1 5 Sudoeste 19 Sudoeste 0 -- -- 23
2019-07-31 16:00:00 34.7 5 Sudeste 16 Noroeste 0 -- -- 26
2019-07-31 15:00:00 34.5 3 Sur 15 Sudeste 0 -- -- 27
2019-07-31 14:00:00 33.7 3 Sur 17 Este 0 -- -- 26
2019-07-31 13:00:00 32.8 5 Sudeste 17 Sudeste 0 -- -- 27
2019-07-31 12:00:00 31.8 5 Sudeste 17 Nordeste 0 -- -- 29
2019-07-31 11:00:00 27.9 4 Sudeste 13 Sudeste 0 -- -- 30
2019-07-31 10:00:00 22.3 3 Sudeste 5 Este 0 -- -- 38
2019-07-31 09:00:00 19.7 4 Noroeste 6 Noroeste 0 -- -- 40
2019-07-31 08:00:00 17.8 3 Noroeste 6 Noroeste 0 -- -- 37
2019-07-31 07:00:00 18.3 4 Noroeste 7 Noroeste 0 -- -- 35
2019-07-31 06:00:00 19.1 5 Noroeste 11 Norte 0 -- -- 34
2019-07-31 05:00:00 19.6 3 Norte 10 Norte 0 -- -- 32
2019-07-31 04:00:00 20.1 5 Noroeste 11 Norte 0 -- -- 30
2019-07-31 03:00:00 21.5 4 Noroeste 12 Noroeste 0 -- -- 26
2019-07-31 02:00:00 21.8 5 Noroeste 12 Noroeste 0 -- -- 26
2019-07-31 01:00:00 22.3 5 Noroeste 16 Noroeste 0 -- -- 26
2019-07-31 00:00:00 22.8 7 Noroeste 14 Noroeste 0 -- -- 26
2019-07-30 23:00:00 23.3 6 Noroeste 17 Noroeste 0 -- -- 25
2019-07-30 22:00:00 24.6 6 Noroeste 10 Noroeste 0 -- -- 23
2019-07-30 21:00:00 27.7 6 Norte 18 Noroeste 0 -- -- 20
2019-07-30 20:00:00 29.1 8 Norte 21 Noroeste 0 -- -- 19
2019-07-30 19:00:00 31.1 10 Norte 17 Noroeste 0 -- -- 17
2019-07-30 18:00:00 31.5 8 Norte 23 Nordeste 0 -- -- 19
2019-07-30 17:00:00 31.1 8 Nordeste 24 Nordeste 0 -- -- 19
2019-07-30 16:00:00 30.9 9 Norte 26 Norte 0 -- -- 18
2019-07-30 15:00:00 30.2 9 Noroeste 20 Este 0 -- -- 19
2019-07-30 14:00:00 29 9 Nordeste 23 Norte 0 -- -- 22
2019-07-30 13:00:00 28 8 Nordeste 22 Nordeste 0 -- -- 22
2019-07-30 12:00:00 25.9 13 Nordeste 24 Nordeste 0 -- -- 30
2019-07-30 11:00:00 23.3 10 Norte 25 Nordeste 0 -- -- 35
2019-07-30 10:00:00 18.6 8 Nordeste 21 Norte 0 -- -- 48
2019-07-30 09:00:00 17.1 8 Norte 18 Norte 0 -- -- 51
2019-07-30 08:00:00 15.7 6 Nordeste 12 Norte 0 -- -- 55
2019-07-30 07:00:00 16.3 0 Calma 17 Norte 0 -- -- 53
2019-07-30 06:00:00 17.2 10 Norte 23 Noroeste 0 -- -- 51
2019-07-30 05:00:00 17.5 10 Norte 25 Noroeste 0 -- -- 51
2019-07-30 04:00:00 18.1 12 Noroeste 26 Norte 0 -- -- 50
2019-07-30 03:00:00 17.7 5 Noroeste 12 Noroeste 0 -- -- 51
2019-07-30 02:00:00 18.5 4 Oeste 15 Noroeste 0 -- -- 50
2019-07-30 01:00:00 20 3 Noroeste 17 Noroeste 0 -- -- 45
2019-07-30 00:00:00 21.8 7 Noroeste 23 Norte 0 -- -- 38
2019-07-29 23:00:00 23.2 9 Noroeste 23 Noroeste 0 -- -- 35
2019-07-29 22:00:00 24.6 11 Noroeste 28 Noroeste 0 -- -- 32
2019-07-29 21:00:00 26.9 19 Noroeste 34 Noroeste 0 -- -- 32
2019-07-29 20:00:00 28.5 14 Noroeste 32 Noroeste 0 -- -- 32
2019-07-29 19:00:00 30.6 15 Noroeste 28 Noroeste 0 -- -- 29
2019-07-29 18:00:00 31.4 14 Noroeste 30 Oeste 0 -- -- 33
2019-07-29 17:00:00 32.1 13 Noroeste 28 Noroeste 0 -- -- 30
2019-07-29 16:00:00 31.9 9 Sudoeste 27 Oeste 0 -- -- 31
2019-07-29 15:00:00 31 14 Oeste 25 Oeste 0 -- -- 33
2019-07-29 14:00:00 30.3 6 Noroeste 22 Noroeste 0 -- -- 40
2019-07-29 13:00:00 29.2 10 Oeste 25 Noroeste 0 -- -- 39
2019-07-29 12:00:00 27.9 9 Noroeste 17 Oeste 0 -- -- 41
2019-07-29 11:00:00 24.2 8 Oeste 22 Oeste 0 -- -- 50
2019-07-29 10:00:00 19.1 13 Noroeste 23 Noroeste 0 -- -- 59
2019-07-29 09:00:00 18.6 12 Noroeste 24 Oeste 0 -- -- 36
2019-07-29 08:00:00 17.4 9 Noroeste 22 Noroeste 0 -- -- 34
2019-07-29 07:00:00 17.9 10 Oeste 21 Oeste 0 -- -- 41
2019-07-29 06:00:00 18.6 13 Noroeste 27 Oeste 0 -- -- 53
2019-07-29 05:00:00 19.3 10 Oeste 20 Oeste 0 -- -- 60
2019-07-29 04:00:00 19.9 8 Oeste 22 Noroeste 0 -- -- 60
2019-07-29 03:00:00 20.6 13 Oeste 26 Oeste 0 -- -- 59
2019-07-29 02:00:00 21.5 9 Noroeste 19 Noroeste 0 -- -- 58
2019-07-29 01:00:00 21.8 8 Oeste 16 Oeste 0 -- -- 56
2019-07-29 00:00:00 21.8 2 Noroeste 5 Noroeste 0 -- -- 58
2019-07-28 23:00:00 23.6 4 Noroeste 8 Norte 0 -- -- 50
2019-07-28 22:00:00 25.5 0 Calma 10 Noroeste 0 -- -- 50
2019-07-28 21:00:00 28.2 7 Noroeste 15 Nordeste 0 -- -- 33
2019-07-28 20:00:00 29 7 Norte 13 Nordeste 0 -- -- 33
2019-07-28 19:00:00 30.3 4 Este 12 Este 0 -- -- 36
2019-07-28 18:00:00 31.2 5 Nordeste 15 Este 0 -- -- 35
2019-07-28 17:00:00 30.1 5 Este 15 Sudeste 0 -- -- 37
2019-07-28 16:00:00 29.7 6 Nordeste 15 Norte 0 -- -- 37
2019-07-28 15:00:00 29.9 5 Sur 19 Oeste 0 -- -- 40
2019-07-28 14:00:00 29.2 4 Sur 15 Sudoeste 0 -- -- 45
2019-07-28 13:00:00 28 4 Sur 11 Sudeste 0 -- -- 47
2019-07-28 12:00:00 24.4 4 Sudoeste 10 Oeste 0 -- -- 58
2019-07-28 11:00:00 23.6 3 Este 12 Este 0 -- -- 58
2019-07-28 10:00:00 20.4 3 Norte 8 Nordeste 0 -- -- 68
2019-07-28 09:00:00 17.5 0 Calma 4 Noroeste 0 -- -- 76
2019-07-28 08:00:00 16.5 0 Calma 3 Noroeste 0 -- -- 80
2019-07-28 07:00:00 16.1 3 Noroeste 5 Noroeste 0 -- -- 82
2019-07-28 06:00:00 15.8 2 Noroeste 5 Noroeste 0 -- -- 86
2019-07-28 05:00:00 15.7 3 Noroeste 10 Oeste 0 -- -- 85
2019-07-28 04:00:00 16.3 3 Noroeste 14 Noroeste 0 -- -- 83
2019-07-28 03:00:00 17 8 Oeste 20 Noroeste 0 -- -- 82
2019-07-28 02:00:00 17.5 9 Noroeste 20 Oeste 0 -- -- 79
2019-07-28 01:00:00 18.2 9 Noroeste 20 Oeste 0 -- -- 76
2019-07-28 00:00:00 18.9 5 Oeste 21 Oeste 0 -- -- 73
2019-07-27 23:00:00 19.8 9 Noroeste 18 Oeste 0 -- -- 73
2019-07-26 12:00:00 -- -- -- -- -- -- -- -- --
2019-07-26 11:00:00 20.6 8 Noroeste 18 Noroeste 0 -- -- 57
2019-07-26 10:00:00 18.1 6 Noroeste 15 Oeste 0 -- -- 79
2019-07-26 09:00:00 17.2 6 Noroeste 17 Oeste 0 -- -- 80
2019-07-26 08:00:00 17 8 Noroeste 19 Noroeste 0 -- -- 84
2019-07-26 07:00:00 17.5 9 Oeste 22 Noroeste 0 -- -- 83
2019-07-26 06:00:00 18.2 7 Noroeste 15 Oeste 0 -- -- 82
2019-07-26 05:00:00 18.7 10 Noroeste 26 Oeste 0 -- -- 81
2019-07-26 04:00:00 19.5 9 Oeste 26 Oeste 0 -- -- 79
2019-07-26 03:00:00 20.5 11 Oeste 26 Oeste 0 -- -- 75
2019-07-26 02:00:00 21.5 15 Noroeste 30 Noroeste 0 -- -- 72
2019-07-26 01:00:00 22.5 15 Noroeste 33 Noroeste 0 -- -- 71
2019-07-26 00:00:00 24.4 17 Noroeste 36 Noroeste 0 -- -- 63
2019-07-25 23:00:00 26.3 9 Noroeste 22 Oeste 0 -- -- 33
2019-07-25 22:00:00 27.5 10 Oeste 23 Noroeste 0 -- -- 27
2019-07-25 21:00:00 29.9 10 Noroeste 26 Sudoeste 0 -- -- 34
2019-07-25 20:00:00 31.7 11 Oeste 26 Oeste 0 -- -- 34
2019-07-25 19:00:00 34.1 8 Noroeste 26 Sudoeste 0 -- -- 28
2019-07-25 18:00:00 34.4 8 Sudoeste 24 Sudoeste 0 -- -- 25
2019-07-25 17:00:00 35.3 5 Sudoeste 23 Sudoeste 0 -- -- 28
2019-07-25 16:00:00 35.4 5 Sudoeste 20 Sur 0 -- -- 28
2019-07-25 15:00:00 35 3 Sudeste 22 Sudoeste 0 -- -- 29
2019-07-25 14:00:00 33.9 8 Sudoeste 24 Sudoeste 0 -- -- 30
2019-07-25 13:00:00 32.8 4 Sudoeste 19 Sudoeste 0 -- -- 32
2019-07-25 12:00:00 30.9 3 Sur 14 Sudoeste 0 -- -- 37
2019-07-25 11:00:00 28 3 Sur 12 Sudeste 0 -- -- 47
2019-07-25 10:00:00 23.3 2 Sudeste 7 Este 0 -- -- 61
2019-07-25 09:00:00 20.4 0 Calma 4 Noroeste 0 -- -- 64
2019-07-25 08:00:00 18.4 0 Calma 2 Noroeste 0 -- -- 63
2019-07-25 07:00:00 18.6 0 Calma 2 Sudoeste 0 -- -- 62
2019-07-25 06:00:00 19.1 0 Calma 3 Noroeste 0 -- -- 60
2019-07-25 05:00:00 20.2 0 Calma 6 Sudeste 0 -- -- 50
2019-07-25 04:00:00 22 0 Calma 10 Oeste 0 -- -- 45
2019-07-25 03:00:00 23.8 9 Oeste 17 Noroeste 0 -- -- 41
2019-07-25 02:00:00 24.8 9 Oeste 20 Oeste 0 -- -- 43
2019-07-25 01:00:00 25.7 8 Oeste 19 Noroeste 0 -- -- 49
2019-07-25 00:00:00 26.8 10 Oeste 21 Sudoeste 0 -- -- 46
2019-07-24 23:00:00 27.9 9 Oeste 24 Sudoeste 0 -- -- 43
2019-07-24 22:00:00 29.4 12 Sudoeste 24 Oeste 0 -- -- 40
2019-07-24 21:00:00 31.3 8 Sudoeste 23 Sudoeste 0 -- -- 37
2019-07-24 20:00:00 32.7 5 Sur 19 Sudoeste 0 -- -- 33
2019-07-24 19:00:00 34.5 4 Sur 18 Sudoeste 0 -- -- 30
2019-07-24 18:00:00 35.6 5 Sur 20 Oeste 0 -- -- 32
2019-07-24 17:00:00 36.3 4 Sur 22 Sudoeste 0 -- -- 32
2019-07-24 16:00:00 36 5 Sudeste 15 Oeste 0 -- -- 29
2019-07-24 15:00:00 35.8 4 Sur 22 Sudoeste 0 -- -- 32
2019-07-24 14:00:00 35.1 4 Sur 17 Este 0 -- -- 33
2019-07-24 13:00:00 33.8 4 Sur 20 Este 0 -- -- 34
2019-07-24 12:00:00 32.6 4 Sur 12 Sur 0 -- -- 39
2019-07-24 11:00:00 29.1 3 Sur 9 Sudoeste 0 -- -- 51
2019-07-24 10:00:00 26.3 0 Calma 5 Sudoeste 0 -- -- 56
2019-07-24 09:00:00 22.5 0 Calma 5 Noroeste 0 -- -- 63
2019-07-24 08:00:00 20.7 0 Calma 2 Sudoeste 0 -- -- 60
2019-07-24 07:00:00 20.9 0 Calma 2 Oeste 0 -- -- 63
2019-07-24 06:00:00 21.7 0 Calma 5 Sudeste 0 -- -- 62
2019-07-24 05:00:00 22.1 0 Calma 5 Oeste 0 -- -- 60
2019-07-24 04:00:00 23.1 0 Calma 6 Oeste 0 -- -- 60
2019-07-24 03:00:00 24.1 2 Noroeste 6 Oeste 0 -- -- 60
2019-07-24 02:00:00 25.2 3 Oeste 9 Oeste 0 -- -- 59
2019-07-24 01:00:00 26.2 5 Oeste 19 Sudoeste 0 -- -- 56
2019-07-24 00:00:00 27 11 Oeste 18 Sudoeste 0 -- -- 54
2019-07-23 23:00:00 27.6 9 Oeste 18 Oeste 0 -- -- 51
2019-07-23 22:00:00 28.8 12 Oeste 28 Oeste 0 -- -- 47
2019-07-23 21:00:00 31 12 Sudoeste 26 Oeste 0 -- -- 42
2019-07-23 20:00:00 33.2 11 Sudoeste 22 Sudoeste 0 -- -- 37
2019-07-23 19:00:00 33.5 7 Oeste 17 Sudoeste 0 -- -- 35
2019-07-23 18:00:00 35.1 4 Sudeste 21 Sudoeste 0 -- -- 32
2019-07-23 17:00:00 34.4 3 Sudeste 16 Sudoeste 0 -- -- 33
2019-07-23 16:00:00 34.6 3 Sudeste 16 Sudeste 0 -- -- 35
2019-07-23 15:00:00 35.4 6 Sudoeste 19 Oeste 0 -- -- 36
2019-07-23 14:00:00 34.7 9 Sudoeste 21 Sudoeste 0 -- -- 37
2019-07-23 13:00:00 33.6 5 Sur 14 Oeste 0 -- -- 38
2019-07-23 12:00:00 31.9 3 Sudeste 12 Oeste 0 -- -- 42
2019-07-23 11:00:00 28.5 2 Sur 8 Sudoeste 0 -- -- 50
2019-07-23 10:00:00 24.9 2 Este 6 Este 0 -- -- 63
2019-07-23 09:00:00 22.4 0 Calma 6 Norte 0 -- -- 62
2019-07-23 08:00:00 21.6 0 Calma 5 Oeste 0 -- -- 54
2019-07-23 07:00:00 22.2 3 Oeste 9 Oeste 0 -- -- 51
2019-07-23 06:00:00 22.1 0 Calma 3 Noroeste 0 -- -- 49
2019-07-23 05:00:00 23.1 0 Calma 6 Noroeste 0 -- -- 47
2019-07-23 04:00:00 24.1 8 Oeste 15 Oeste 0 -- -- 43
2019-07-23 03:00:00 24.3 4 Noroeste 10 Oeste 0 -- -- 60
2019-07-23 02:00:00 25.6 3 Oeste 10 Oeste 0 -- -- 57
2019-07-23 01:00:00 27.6 3 Sudoeste 21 Oeste 0 -- -- 53
2019-07-23 00:00:00 28.8 9 Oeste 22 Oeste 0 -- -- 47
2019-07-22 23:00:00 29.4 10 Oeste 20 Oeste 0 -- -- 48
2019-07-22 22:00:00 30.6 10 Oeste 21 Noroeste 0 -- -- 46
2019-07-22 21:00:00 32 0 Calma 10 Sudeste 0 -- -- 41
2019-07-22 20:00:00 33.6 3 Sudeste 14 Este 0 -- -- 36
2019-07-22 19:00:00 35.6 5 Sudeste 16 Sudeste 0 -- -- 32
2019-07-22 18:00:00 36.3 4 Sudeste 15 Sudoeste 0 -- -- 35
2019-07-22 17:00:00 36.4 6 Sudeste 18 Sur 0 -- -- 32
2019-07-22 16:00:00 36.4 7 Sur 21 Sudoeste 0 -- -- 33
2019-07-22 15:00:00 35.9 6 Sudeste 20 Sur 0 -- -- 31
2019-07-22 14:00:00 36 6 Sudeste 17 Sudoeste 0 -- -- 30
2019-07-22 13:00:00 35.1 4 Sudeste 18 Este 0 -- -- 32
2019-07-22 12:00:00 33.1 3 Sudeste 16 Este 0 -- -- 34
2019-07-22 11:00:00 29.5 2 Sudeste 9 Sudeste 0 -- -- 46
2019-07-22 10:00:00 24.2 0 Calma 5 Noroeste 0 -- -- 65
2019-07-22 09:00:00 21.4 0 Calma 3 Noroeste 0 -- -- 66
2019-07-22 08:00:00 19.9 0 Calma 3 Noroeste 0 -- -- 66
2019-07-22 07:00:00 20.1 0 Calma 2 Noroeste 0 -- -- 56
2019-07-22 06:00:00 20.8 0 Calma 5 Noroeste 0 -- -- 53
2019-07-22 05:00:00 21.6 0 Calma 3 Noroeste 0 -- -- 50
2019-07-22 04:00:00 22.8 0 Calma 5 Noroeste 0 -- -- 44
2019-07-22 03:00:00 24.5 3 Norte 7 Sur 0 -- -- 34
2019-07-22 02:00:00 26 0 Calma 14 Noroeste 0 -- -- 32
2019-07-22 01:00:00 28 9 Oeste 18 Oeste 0 -- -- 28
2019-07-22 00:00:00 29 10 Oeste 22 Noroeste 0 -- -- 27
2019-07-21 23:00:00 29.8 10 Noroeste 18 Oeste 0 -- -- 24
2019-07-21 22:00:00 31 6 Noroeste 17 Noroeste 0 -- -- 23
2019-07-21 21:00:00 33.2 9 Noroeste 23 Oeste 0 -- -- 22
2019-07-21 20:00:00 35 10 Noroeste 26 Oeste 0 -- -- 22
2019-07-21 19:00:00 37 10 Noroeste 22 Oeste 0 -- -- 22
2019-07-21 18:00:00 37.6 3 Sur 42 Oeste 0 -- -- 26
2019-07-21 17:00:00 37.9 4 Sur 23 Sudoeste 0 -- -- 26
2019-07-21 16:00:00 37.8 6 Sur 19 Sudoeste 0 -- -- 25
2019-07-21 15:00:00 37.5 4 Sudeste 15 Sudeste 0 -- -- 26
2019-07-21 14:00:00 36.9 4 Sur 18 Sudoeste 0 -- -- 23
2019-07-21 13:00:00 35.6 6 Sudoeste 13 Sudoeste 0 -- -- 27
2019-07-21 12:00:00 33.2 4 Oeste 12 Noroeste 0 -- -- 27
2019-07-21 11:00:00 28.7 0 Calma 7 Nordeste 0 -- -- 47
2019-07-21 10:00:00 24.1 0 Calma 4 Este 0 -- -- 58
2019-07-21 09:00:00 21.4 2 Norte 4 Noroeste 0 -- -- 48
2019-07-21 08:00:00 20.3 0 Calma 4 Noroeste 0 -- -- 42
2019-07-21 07:00:00 20.8 0 Calma 2 Oeste 0 -- -- 38
2019-07-21 06:00:00 21.8 0 Calma 5 Sudoeste 0 -- -- 36
2019-07-21 05:00:00 23.3 2 Norte 12 Oeste 0 -- -- 34
2019-07-21 04:00:00 23.9 5 Noroeste 12 Oeste 0 -- -- 35
2019-07-21 03:00:00 24.9 10 Noroeste 24 Oeste 0 -- -- 38
2019-07-21 02:00:00 25.8 14 Oeste 26 Oeste 0 -- -- 37
2019-07-21 01:00:00 27 10 Noroeste 23 Oeste 0 -- -- 37
2019-07-21 00:00:00 28.3 11 Noroeste 24 Noroeste 0 -- -- 32
2019-07-20 23:00:00 29.4 9 Noroeste 20 Noroeste 0 -- -- 30
2019-07-20 22:00:00 30.9 8 Noroeste 18 Noroeste 0 -- -- 28
2019-07-20 21:00:00 32.8 10 Noroeste 22 Oeste 0 -- -- 26
2019-07-20 20:00:00 34.5 11 Noroeste 26 Oeste 0 -- -- 25
2019-07-20 19:00:00 36 10 Noroeste 31 Oeste 0 -- -- 25
2019-07-20 18:00:00 37 13 Noroeste 27 Noroeste 0 -- -- 25
2019-07-20 17:00:00 37.2 6 Sudoeste 22 Oeste 0 -- -- 27
2019-07-20 16:00:00 37.4 5 Sudoeste 21 Oeste 0 -- -- 29
2019-07-20 15:00:00 36.9 3 Sur 18 Sudeste 0 -- -- 30
2019-07-20 14:00:00 36.1 3 Sudeste 16 Sudeste 0 -- -- 29
2019-07-20 13:00:00 35.2 3 Sur 20 Sudoeste 0 -- -- 35
2019-07-20 12:00:00 32.8 4 Sudeste 12 Sudeste 0 -- -- 37
2019-07-20 11:00:00 29.1 2 Sur 6 Sudoeste 0 -- -- 50
2019-07-20 10:00:00 25.7 0 Calma 4 Noroeste 0 -- -- 62
2019-07-20 09:00:00 21.9 3 Noroeste 5 Noroeste 0 -- -- 59
2019-07-20 08:00:00 19.9 0 Calma 2 Noroeste 0 -- -- 58
2019-07-20 07:00:00 20 0 Calma 2 Oeste 0 -- -- 54
2019-07-20 06:00:00 20.8 0 Calma 2 Noroeste 0 -- -- 50
2019-07-20 05:00:00 22 0 Calma 5 Noroeste 0 -- -- 48
2019-07-20 04:00:00 23.5 0 Calma 4 Nordeste 0 -- -- 51
2019-07-20 03:00:00 24.6 0 Calma 10 Sudoeste 0 -- -- 47
2019-07-20 02:00:00 26.2 5 Sudoeste 16 Oeste 0 -- -- 47
2019-07-20 01:00:00 27.1 6 Oeste 18 Oeste 0 -- -- 43
2019-07-20 00:00:00 28.4 7 Oeste 21 Oeste 0 -- -- 35
2019-07-19 23:00:00 29.6 12 Oeste 22 Sudoeste 0 -- -- 33
2019-07-19 22:00:00 30.2 9 Oeste 23 Sudoeste 0 -- -- 33
2019-07-19 21:00:00 31.8 0 Calma 10 Sudeste 0 -- -- 27
2019-07-19 20:00:00 33.7 3 Sur 13 Sudeste 0 -- -- 24
2019-07-19 19:00:00 36.1 3 Sur 16 Este 0 -- -- 25
2019-07-19 18:00:00 36.7 4 Sudeste 17 Sudeste 0 -- -- 19
2019-07-19 17:00:00 36.8 5 Sudeste 23 Sudeste 0 -- -- 22
2019-07-19 16:00:00 36.1 8 Sudeste 25 Sudeste 0 -- -- 24
2019-07-19 15:00:00 35.9 4 Sur 21 Sudeste 0 -- -- 31
2019-07-19 14:00:00 35 5 Sudeste 18 Sudeste 0 -- -- 33
2019-07-19 13:00:00 34.5 4 Sudeste 14 Sudeste 0 -- -- 32
2019-07-19 12:00:00 32.5 6 Sudeste 19 Este 0 -- -- 37
2019-07-19 11:00:00 29.1 3 Sudeste 12 Sudeste 0 -- -- 47
2019-07-19 10:00:00 24.9 3 Sudeste 5 Este 0 -- -- 59
2019-07-19 09:00:00 21.6 0 Calma 4 Noroeste 0 -- -- 58
2019-07-19 08:00:00 20.2 3 Noroeste 4 Noroeste 0 -- -- 52
2019-07-19 07:00:00 20.9 0 Calma 2 Sudoeste 0 -- -- 49
2019-07-19 06:00:00 21.6 0 Calma 6 Noroeste 0 -- -- 49
2019-07-19 05:00:00 22 2 Noroeste 5 Oeste 0 -- -- 47
2019-07-19 04:00:00 22.6 0 Calma 4 Noroeste 0 -- -- 48
2019-07-19 03:00:00 24.1 2 Noroeste 12 Oeste 0 -- -- 49
2019-07-19 02:00:00 25.3 7 Noroeste 15 Oeste 0 -- -- 48
2019-07-19 01:00:00 25.8 5 Oeste 12 Oeste 0 -- -- 48
2019-07-19 00:00:00 27 9 Oeste 21 Oeste 0 -- -- 45